Buochs Airport


Codes: LSZC/BXO
Name: Buochs Airport
City: Buochs
Country: Switzerland
Elevation: 1475 ft.
Website:

Photos at Buochs Airport


   Photos courtesy of SpottingLog. You can add your own sightings and photos by signing up for a free trial today.



No photos found.

Weather at Buochs Airport


Time (UTC)DescriptionTempratureWindCloud coverageVisibilityPressureHumidity
21-Jun-2024 12:00Moderate Rain18°C2 mph, N83%10000m1015hPa91%
21-Jun-2024 15:00Moderate Rain17°C2 mph, N92%0m1016hPa96%
21-Jun-2024 18:00Heavy Intensity Rain14°C4 mph, SE100%2937m1018hPa98%
21-Jun-2024 21:00Moderate Rain13°C4 mph, S100%10000m1019hPa95%
22-Jun-2024 00:00Light Rain13°C4 mph, S100%10000m1019hPa91%
22-Jun-2024 03:00Scattered Clouds11°C4 mph, S37%10000m1019hPa92%
22-Jun-2024 06:00Scattered Clouds15°C0 mph, SW26%10000m1018hPa84%
22-Jun-2024 09:00Light Rain18°C4 mph, N99%10000m1017hPa72%
22-Jun-2024 12:00Light Rain15°C4 mph, N100%3197m1017hPa98%
22-Jun-2024 15:00Moderate Rain13°C2 mph, S100%10000m1017hPa97%
22-Jun-2024 18:00Light Rain15°C2 mph, E96%10000m1017hPa90%
22-Jun-2024 21:00Overcast Clouds12°C2 mph, S96%10000m1017hPa91%
23-Jun-2024 00:00Light Rain12°C2 mph, N98%10000m1017hPa93%
23-Jun-2024 03:00Light Rain12°C0 mph, S100%10000m1016hPa94%
23-Jun-2024 06:00Light Rain12°C2 mph, N100%1285m1016hPa100%
23-Jun-2024 09:00Light Rain13°C2 mph, N100%10000m1017hPa97%
23-Jun-2024 12:00Light Rain16°C4 mph, NE100%10000m1016hPa86%
23-Jun-2024 15:00Light Rain20°C4 mph, NE79%10000m1015hPa67%
23-Jun-2024 18:00Light Rain17°C4 mph, N75%10000m1016hPa90%
23-Jun-2024 21:00Light Rain14°C0 mph, SE94%10000m1017hPa98%
24-Jun-2024 00:00Overcast Clouds14°C0 mph, NE96%10000m1017hPa97%
24-Jun-2024 03:00Overcast Clouds13°C2 mph, E96%10000m1016hPa97%
24-Jun-2024 06:00Broken Clouds15°C2 mph, N82%10000m1016hPa90%
24-Jun-2024 09:00Broken Clouds18°C4 mph, N81%10000m1015hPa74%
24-Jun-2024 12:00Broken Clouds20°C4 mph, N84%10000m1014hPa71%
24-Jun-2024 15:00Light Rain22°C2 mph, N97%10000m1013hPa69%
24-Jun-2024 18:00Light Rain20°C2 mph, NW97%10000m1013hPa90%
24-Jun-2024 21:00Light Rain17°C2 mph, S100%10000m1014hPa95%
25-Jun-2024 00:00Light Rain16°C4 mph, S100%10000m1013hPa95%
25-Jun-2024 03:00Light Rain16°C2 mph, S100%10000m1012hPa93%
25-Jun-2024 06:00Overcast Clouds17°C0 mph, NW99%10000m1012hPa91%
25-Jun-2024 09:00Broken Clouds21°C7 mph, N59%10000m1011hPa75%
25-Jun-2024 12:00Light Rain22°C4 mph, N74%10000m1010hPa79%
25-Jun-2024 15:00Light Rain20°C2 mph, N100%10000m1010hPa86%
25-Jun-2024 18:00Light Rain19°C0 mph, N94%10000m1009hPa94%
25-Jun-2024 21:00Light Rain16°C4 mph, S44%10000m1010hPa96%
26-Jun-2024 00:00Light Rain15°C4 mph, S33%10000m1009hPa95%
26-Jun-2024 03:00Light Rain16°C4 mph, S88%10000m1008hPa95%
26-Jun-2024 06:00Light Rain18°C2 mph, S94%10000m1008hPa91%
26-Jun-2024 09:00Light Rain21°C4 mph, N55%6250m1007hPa84%